Time;durP1;ratioP1;P1;durP2;ratioP2;P2;SDS_P1;SDS_P2;PMS_P1;PMS_P2;Temp;Humidity;BMP_temperature;BMP_pressure;BME280_temperature;BME280_humidity;BME280_pressure;Samples;Min_cycle;Max_cycle;Signal;HPM_P1;HPM_P2
2022/07/21 00:01:53;;;;;;;6.18;4.25;;;;;;;;;;5058836;28;20049;-85
2022/07/21 00:04:21;;;;;;;9.63;4.35;;;;;;;;;;5059646;28;20080;-85
2022/07/21 00:06:48;;;;;;;4.50;4.10;;;;;;;;;;5062501;28;20087;-84
2022/07/21 00:09:16;;;;;;;5.80;4.05;;;;;;;;;;5060093;28;20049;-85
2022/07/21 00:11:43;;;;;;;5.75;4.28;;;;;;;;;;5061321;28;20052;-84
2022/07/21 00:14:11;;;;;;;6.35;3.92;;;;;;;;;;5061906;28;20041;-83
2022/07/21 00:16:39;;;;;;;4.57;4.18;;;;;;;;;;5063318;28;20071;-84
2022/07/21 00:19:06;;;;;;;4.30;3.97;;;;;;;;;;5064316;28;20052;-84
2022/07/21 00:21:34;;;;;;;5.72;4.03;;;;;;;;;;5064812;28;20079;-84
2022/07/21 00:24:01;;;;;;;5.75;4.00;;;;;;;;;;5064484;28;20075;-84
2022/07/21 00:26:28;;;;;;;5.03;4.03;;;;;;;;;;5064493;28;20087;-84
2022/07/21 00:28:55;;;;;;;6.35;4.45;;;;;;;;;;5065060;28;20045;-85
2022/07/21 00:31:23;;;;;;;4.38;3.92;;;;;;;;;;5064519;28;20075;-84
2022/07/21 00:33:51;;;;;;;6.47;4.28;;;;;;;;;;5066899;28;20055;-84
2022/07/21 00:36:19;;;;;;;7.20;4.20;;;;;;;;;;5066344;28;20049;-84
2022/07/21 00:38:46;;;;;;;5.38;4.45;;;;;;;;;;5067170;28;20049;-85
2022/07/21 00:41:13;;;;;;;6.25;4.57;;;;;;;;;;5067087;28;20060;-85
2022/07/21 00:43:40;;;;;;;8.07;4.72;;;;;;;;;;5067133;28;20108;-84
2022/07/21 00:46:08;;;;;;;18.90;4.60;;;;;;;;;;5072714;28;20044;-84
2022/07/21 00:48:35;;;;;;;6.65;4.90;;;;;;;;;;5074857;28;20033;-84
2022/07/21 00:51:03;;;;;;;10.20;4.65;;;;;;;;;;5062889;28;20075;-84
2022/07/21 00:53:30;;;;;;;6.43;4.38;;;;;;;;;;5058311;28;20053;-83
2022/07/21 00:55:58;;;;;;;6.32;4.30;;;;;;;;;;5061616;28;20052;-84
2022/07/21 00:58:25;;;;;;;5.32;4.63;;;;;;;;;;5059859;28;20052;-83
2022/07/21 01:00:52;;;;;;;4.18;3.90;;;;;;;;;;5063732;28;20518;-85
2022/07/21 01:03:20;;;;;;;5.80;4.75;;;;;;;;;;5064541;28;20560;-84
2022/07/21 01:05:47;;;;;;;6.35;4.90;;;;;;;;;;5061499;28;20472;-85
2022/07/21 01:08:15;;;;;;;4.93;4.53;;;;;;;;;;5059570;28;20095;-85
2022/07/21 01:10:42;;;;;;;5.82;4.25;;;;;;;;;;5060754;28;20049;-85
2022/07/21 01:13:10;;;;;;;6.00;4.60;;;;;;;;;;5062787;28;20068;-85
2022/07/21 01:15:37;;;;;;;7.72;4.45;;;;;;;;;;5066248;28;20045;-85
2022/07/21 01:18:04;;;;;;;8.35;4.53;;;;;;;;;;5067413;28;20084;-84
2022/07/21 01:20:34;;;;;;;9.73;4.90;;;;;;;;;;5058345;28;20079;-83
2022/07/21 01:23:02;;;;;;;4.80;4.40;;;;;;;;;;5055163;28;20475;-83
2022/07/21 01:25:29;;;;;;;4.30;3.90;;;;;;;;;;5058334;28;20056;-83
2022/07/21 01:27:56;;;;;;;8.00;4.03;;;;;;;;;;5058246;28;20064;-83
2022/07/21 01:30:23;;;;;;;5.03;4.05;;;;;;;;;;5058582;28;20074;-83
2022/07/21 01:32:51;;;;;;;7.18;4.70;;;;;;;;;;5058083;28;20051;-83
2022/07/21 01:35:18;;;;;;;5.13;4.07;;;;;;;;;;5058691;28;20083;-84
2022/07/21 01:37:46;;;;;;;4.53;4.13;;;;;;;;;;5058139;28;20417;-83
2022/07/21 01:43:00;;;;;;;5.38;4.18;;;;;;;;;;5079407;28;20049;-84
2022/07/21 01:45:28;;;;;;;4.53;4.00;;;;;;;;;;5061765;28;20551;-83
2022/07/21 01:47:56;;;;;;;7.05;4.93;;;;;;;;;;5062520;28;20111;-82
2022/07/21 01:50:26;;;;;;;6.22;4.28;;;;;;;;;;5062635;28;20041;-83
2022/07/21 01:52:57;;;;;;;5.28;4.30;;;;;;;;;;5062473;28;20052;-83
2022/07/21 01:55:25;;;;;;;7.53;4.30;;;;;;;;;;5080036;28;20048;-83
2022/07/21 01:57:52;;;;;;;4.30;3.90;;;;;;;;;;5061593;28;20044;-83
2022/07/21 02:00:20;;;;;;;5.57;3.95;;;;;;;;;;5078998;28;20056;-84
2022/07/21 02:02:47;;;;;;;4.20;3.83;;;;;;;;;;5061081;28;20053;-83
2022/07/21 02:05:14;;;;;;;3.67;3.40;;;;;;;;;;5060683;28;20049;-83
2022/07/21 02:07:41;;;;;;;3.65;3.45;;;;;;;;;;5060900;28;20053;-83
2022/07/21 02:10:09;;;;;;;3.55;3.33;;;;;;;;;;5079076;28;20493;-84
2022/07/21 02:12:36;;;;;;;3.83;3.40;;;;;;;;;;5064843;28;20044;-83
2022/07/21 02:15:04;;;;;;;6.55;3.50;;;;;;;;;;5064842;28;20342;-85
2022/07/21 02:17:31;;;;;;;3.85;3.40;;;;;;;;;;5062572;28;20110;-84
2022/07/21 02:19:58;;;;;;;3.42;3.13;;;;;;;;;;5065819;28;20433;-83
2022/07/21 02:22:25;;;;;;;3.25;2.85;;;;;;;;;;5083921;28;20045;-86
2022/07/21 02:24:53;;;;;;;4.10;3.40;;;;;;;;;;5066324;28;20418;-85
2022/07/21 02:27:20;;;;;;;7.22;3.50;;;;;;;;;;5067383;28;20465;-86
2022/07/21 02:29:47;;;;;;;7.53;3.83;;;;;;;;;;5063413;28;20113;-85
2022/07/21 02:32:14;;;;;;;3.95;3.65;;;;;;;;;;5062536;28;20067;-84
2022/07/21 02:34:41;;;;;;;5.05;3.88;;;;;;;;;;5062508;28;20052;-85
2022/07/21 02:37:08;;;;;;;5.38;3.70;;;;;;;;;;5062474;28;20098;-84
2022/07/21 02:39:36;;;;;;;5.30;3.70;;;;;;;;;;5062739;28;20082;-86
2022/07/21 02:42:03;;;;;;;4.70;3.60;;;;;;;;;;5060979;28;20044;-85
2022/07/21 02:44:30;;;;;;;4.28;3.78;;;;;;;;;;5058796;28;20049;-84
2022/07/21 02:46:58;;;;;;;5.45;3.65;;;;;;;;;;5058808;28;20049;-83
2022/07/21 02:49:25;;;;;;;4.78;3.80;;;;;;;;;;5059766;28;20058;-84
2022/07/21 02:51:52;;;;;;;4.38;4.03;;;;;;;;;;5077817;28;20433;-84
2022/07/21 02:54:19;;;;;;;4.50;4.20;;;;;;;;;;5075934;28;20060;-80
2022/07/21 02:56:48;;;;;;;4.38;3.97;;;;;;;;;;5059127;28;20391;-85
2022/07/21 02:59:15;;;;;;;5.78;4.05;;;;;;;;;;5060908;28;20075;-83
2022/07/21 03:01:43;;;;;;;4.35;3.95;;;;;;;;;;5059466;28;20098;-85
2022/07/21 03:04:11;;;;;;;4.18;3.78;;;;;;;;;;5059684;28;20056;-84
2022/07/21 03:06:39;;;;;;;4.55;4.05;;;;;;;;;;5058353;28;20052;-85
2022/07/21 03:09:06;;;;;;;4.50;4.10;;;;;;;;;;5058330;28;20114;-85
2022/07/21 03:11:34;;;;;;;7.15;4.32;;;;;;;;;;5057740;28;20094;-86
2022/07/21 03:14:01;;;;;;;5.05;4.22;;;;;;;;;;5062068;28;20048;-81
2022/07/21 03:16:29;;;;;;;6.28;4.57;;;;;;;;;;5060497;28;20044;-80
2022/07/21 03:18:56;;;;;;;9.80;5.47;;;;;;;;;;5060952;28;20044;-82
2022/07/21 03:21:24;;;;;;;8.38;5.10;;;;;;;;;;5061429;28;20083;-82
2022/07/21 03:23:51;;;;;;;8.60;5.28;;;;;;;;;;5060912;28;20052;-82
2022/07/21 03:26:18;;;;;;;7.30;5.13;;;;;;;;;;5060699;28;20139;-83
2022/07/21 03:28:45;;;;;;;6.43;5.47;;;;;;;;;;5061612;28;20052;-83
2022/07/21 03:31:12;;;;;;;6.10;5.43;;;;;;;;;;5079498;28;20429;-83
2022/07/21 03:33:39;;;;;;;9.40;6.40;;;;;;;;;;5062151;28;20071;-83
2022/07/21 03:36:07;;;;;;;7.38;6.68;;;;;;;;;;5061478;28;20486;-83
2022/07/21 03:38:34;;;;;;;13.98;6.97;;;;;;;;;;5079957;28;20049;-80
2022/07/21 03:41:01;;;;;;;8.45;7.15;;;;;;;;;;5061518;28;20061;-82
2022/07/21 03:43:29;;;;;;;7.57;6.75;;;;;;;;;;5062314;28;20451;-83
2022/07/21 03:45:56;;;;;;;8.77;7.88;;;;;;;;;;5062141;28;20493;-83
2022/07/21 03:48:23;;;;;;;9.13;7.10;;;;;;;;;;5062053;28;20078;-82
2022/07/21 03:50:50;;;;;;;9.05;8.23;;;;;;;;;;5062749;28;20048;-82
2022/07/21 03:53:17;;;;;;;14.90;8.98;;;;;;;;;;5080538;28;20052;-82
2022/07/21 03:55:45;;;;;;;14.35;10.25;;;;;;;;;;5081897;28;20439;-83
2022/07/21 03:58:14;;;;;;;13.18;9.43;;;;;;;;;;5063299;28;20413;-83
2022/07/21 04:00:42;;;;;;;11.07;8.48;;;;;;;;;;5064306;28;20048;-83
2022/07/21 04:03:10;;;;;;;9.93;8.88;;;;;;;;;;5063413;28;20049;-83
2022/07/21 04:05:38;;;;;;;10.05;8.80;;;;;;;;;;5064682;28;20044;-83
2022/07/21 04:08:06;;;;;;;11.23;8.50;;;;;;;;;;5068843;28;20460;-83
2022/07/21 04:10:35;;;;;;;9.27;8.38;;;;;;;;;;5069251;28;20055;-83
2022/07/21 04:13:03;;;;;;;13.50;8.50;;;;;;;;;;5066350;28;20044;-82
2022/07/21 04:15:31;;;;;;;12.65;8.40;;;;;;;;;;5063172;28;20045;-83
2022/07/21 04:17:58;;;;;;;10.50;8.45;;;;;;;;;;5060446;28;20048;-82
2022/07/21 04:20:26;;;;;;;12.88;9.27;;;;;;;;;;5060182;28;20056;-83
2022/07/21 04:22:54;;;;;;;9.15;8.27;;;;;;;;;;5060618;28;20070;-81
2022/07/21 04:25:21;;;;;;;10.60;8.90;;;;;;;;;;5059838;28;20555;-82
2022/07/21 04:27:49;;;;;;;16.90;11.10;;;;;;;;;;5060270;28;20048;-81
2022/07/21 04:30:18;;;;;;;13.75;10.30;;;;;;;;;;5059791;28;20059;-82
2022/07/21 04:32:45;;;;;;;13.18;9.52;;;;;;;;;;5059902;28;20044;-82
2022/07/21 04:35:13;;;;;;;11.88;9.40;;;;;;;;;;5077880;28;20044;-81
2022/07/21 04:37:40;;;;;;;10.98;9.82;;;;;;;;;;5057552;28;20049;-82
2022/07/21 04:40:08;;;;;;;14.88;9.15;;;;;;;;;;5059288;28;20078;-81
2022/07/21 04:42:35;;;;;;;14.27;9.30;;;;;;;;;;5059080;28;20531;-82
2022/07/21 04:45:03;;;;;;;11.20;9.13;;;;;;;;;;5058939;28;20055;-83
2022/07/21 04:47:31;;;;;;;12.15;9.27;;;;;;;;;;5058278;28;20040;-83
2022/07/21 04:49:58;;;;;;;10.48;8.75;;;;;;;;;;5058617;28;20048;-84
2022/07/21 04:52:25;;;;;;;10.30;9.23;;;;;;;;;;5059362;28;20040;-82
2022/07/21 04:54:52;;;;;;;11.85;9.82;;;;;;;;;;5057341;28;20044;-82
2022/07/21 04:57:19;;;;;;;11.10;9.52;;;;;;;;;;5057170;28;20049;-83
2022/07/21 04:59:46;;;;;;;10.07;9.13;;;;;;;;;;5058352;28;20098;-82
2022/07/21 05:02:13;;;;;;;9.85;8.90;;;;;;;;;;5058611;28;20131;-83
2022/07/21 05:04:41;;;;;;;10.98;9.30;;;;;;;;;;5059647;28;20055;-83
2022/07/21 05:07:08;;;;;;;10.82;8.95;;;;;;;;;;5076865;28;20078;-82
2022/07/21 05:09:35;;;;;;;9.27;8.05;;;;;;;;;;5059700;28;20056;-82
2022/07/21 05:12:02;;;;;;;9.00;7.75;;;;;;;;;;5059635;28;20563;-83
2022/07/21 05:14:29;;;;;;;9.77;8.07;;;;;;;;;;5060651;28;20082;-83
2022/07/21 05:16:57;;;;;;;9.40;7.68;;;;;;;;;;5064803;28;20044;-84
2022/07/21 05:19:24;;;;;;;11.48;9.13;;;;;;;;;;5068643;28;20053;-83
2022/07/21 05:21:51;;;;;;;9.30;8.48;;;;;;;;;;5069686;28;20052;-84
2022/07/21 05:24:18;;;;;;;10.02;7.93;;;;;;;;;;5087404;28;20078;-84
2022/07/21 05:26:45;;;;;;;12.23;8.55;;;;;;;;;;5088266;28;20051;-84
2022/07/21 05:29:13;;;;;;;14.45;10.02;;;;;;;;;;5090728;28;20056;-85
2022/07/21 05:31:40;;;;;;;11.07;9.98;;;;;;;;;;5073551;28;20049;-83
2022/07/21 05:34:07;;;;;;;10.85;9.27;;;;;;;;;;5066710;28;20177;-83
2022/07/21 05:36:34;;;;;;;8.63;7.82;;;;;;;;;;5064656;28;20045;-82
2022/07/21 05:39:03;;;;;;;9.68;8.73;;;;;;;;;;5064374;28;20087;-82
2022/07/21 05:41:30;;;;;;;9.68;7.35;;;;;;;;;;5064416;28;20151;-82
2022/07/21 05:43:57;;;;;;;9.52;6.82;;;;;;;;;;5064323;28;20087;-83
2022/07/21 05:46:24;;;;;;;8.15;6.95;;;;;;;;;;5064680;28;20504;-82
2022/07/21 05:48:54;;;;;;;7.13;4.72;;;;;;;;;;5081808;28;20124;-83
2022/07/21 05:51:22;;;;;;;6.20;4.68;;;;;;;;;;5047770;28;20044;-83
2022/07/21 05:53:49;;;;;;;5.53;5.07;;;;;;;;;;5082540;28;20048;-83
2022/07/21 05:56:16;;;;;;;5.80;5.30;;;;;;;;;;5063078;28;20049;-84
2022/07/21 05:58:44;;;;;;;11.52;5.75;;;;;;;;;;5064310;28;20106;-83
2022/07/21 06:01:16;;;;;;;6.05;5.07;;;;;;;;;;5063842;28;20391;-83
2022/07/21 06:03:45;;;;;;;7.80;5.00;;;;;;;;;;5063750;28;20078;-81
2022/07/21 06:06:13;;;;;;;8.63;5.38;;;;;;;;;;5065151;28;20053;-82
2022/07/21 06:08:41;;;;;;;12.32;5.97;;;;;;;;;;5064976;28;20075;-83
2022/07/21 06:11:09;;;;;;;9.02;6.35;;;;;;;;;;5064088;28;20414;-82
2022/07/21 06:13:37;;;;;;;9.77;6.55;;;;;;;;;;5065070;28;20056;-82
2022/07/21 06:16:05;;;;;;;8.52;5.70;;;;;;;;;;5065452;28;20044;-83
2022/07/21 06:18:33;;;;;;;7.75;6.72;;;;;;;;;;5065782;28;20075;-83
2022/07/21 06:21:00;;;;;;;7.18;6.57;;;;;;;;;;5083454;28;20044;-83
2022/07/21 06:23:28;;;;;;;7.05;6.45;;;;;;;;;;5064399;28;20060;-81
2022/07/21 06:25:56;;;;;;;7.30;6.70;;;;;;;;;;5061652;28;20083;-82
2022/07/21 06:28:23;;;;;;;7.05;6.35;;;;;;;;;;5060055;28;20060;-81
2022/07/21 06:30:50;;;;;;;7.38;6.68;;;;;;;;;;5058637;28;20049;-80
2022/07/21 06:33:18;;;;;;;6.97;6.22;;;;;;;;;;5076924;28;20052;-80
2022/07/21 06:35:45;;;;;;;8.27;6.57;;;;;;;;;;5058738;28;20555;-80
2022/07/21 06:38:12;;;;;;;8.45;7.57;;;;;;;;;;5058517;28;20044;-81
2022/07/21 06:40:40;;;;;;;8.05;7.20;;;;;;;;;;5059004;28;20040;-80
2022/07/21 06:43:09;;;;;;;8.43;7.20;;;;;;;;;;5059644;28;20441;-80
2022/07/21 06:45:56;;;;;;;8.45;7.18;;;;;;;;;;5076980;28;20051;-80
2022/07/21 06:48:24;;;;;;;7.78;7.05;;;;;;;;;;5077472;28;20048;-80
2022/07/21 06:50:52;;;;;;;9.23;7.50;;;;;;;;;;5063203;28;20044;-81
2022/07/21 06:53:19;;;;;;;9.05;7.10;;;;;;;;;;5060087;28;20048;-79
2022/07/21 06:55:46;;;;;;;8.05;7.13;;;;;;;;;;5058496;28;20049;-80
2022/07/21 06:58:15;;;;;;;9.77;7.55;;;;;;;;;;5058213;28;20045;-81
2022/07/21 07:00:43;;;;;;;7.53;6.82;;;;;;;;;;5058445;28;20044;-80
2022/07/21 07:03:11;;;;;;;7.32;6.72;;;;;;;;;;5058190;28;20362;-80
2022/07/21 07:05:38;;;;;;;7.13;6.53;;;;;;;;;;5058322;28;20052;-80
2022/07/21 07:08:06;;;;;;;8.25;6.32;;;;;;;;;;5057914;28;20048;-80
2022/07/21 07:10:38;;;;;;;7.70;7.00;;;;;;;;;;5058690;28;20044;-80
2022/07/21 07:13:05;;;;;;;7.50;6.90;;;;;;;;;;5057999;28;20064;-79
2022/07/21 07:15:52;;;;;;;8.30;6.35;;;;;;;;;;5061103;28;20131;-81
2022/07/21 07:18:21;;;;;;;7.50;6.78;;;;;;;;;;5058312;28;20071;-79
2022/07/21 07:20:48;;;;;;;7.72;6.95;;;;;;;;;;5057964;28;20048;-79
2022/07/21 07:23:16;;;;;;;9.32;6.55;;;;;;;;;;5075945;28;20049;-81
2022/07/21 07:25:44;;;;;;;7.80;7.00;;;;;;;;;;5058281;28;20139;-79
2022/07/21 07:28:12;;;;;;;9.43;6.57;;;;;;;;;;5058163;28;20483;-80
2022/07/21 07:30:39;;;;;;;7.03;6.43;;;;;;;;;;5058074;28;20067;-81
2022/07/21 07:33:06;;;;;;;8.90;7.93;;;;;;;;;;5057697;28;20048;-80
2022/07/21 07:35:34;;;;;;;7.88;7.07;;;;;;;;;;5057835;28;20097;-81
2022/07/21 07:38:01;;;;;;;7.47;6.85;;;;;;;;;;5056944;28;20445;-79
2022/07/21 07:40:29;;;;;;;7.78;6.85;;;;;;;;;;5074297;28;20090;-79
2022/07/21 07:42:56;;;;;;;7.75;7.05;;;;;;;;;;5057336;28;20135;-78
2022/07/21 07:45:29;;;;;;;8.05;6.93;;;;;;;;;;5057597;28;20440;-78
2022/07/21 07:47:57;;;;;;;8.77;6.97;;;;;;;;;;5057050;28;20076;-80
2022/07/21 07:50:24;;;;;;;12.32;7.25;;;;;;;;;;5056802;28;20053;-80
2022/07/21 07:52:51;;;;;;;7.97;6.68;;;;;;;;;;5056602;28;20048;-80
2022/07/21 07:55:18;;;;;;;7.07;6.38;;;;;;;;;;5056443;28;20559;-80
2022/07/21 07:57:45;;;;;;;7.28;6.45;;;;;;;;;;5056953;28;20056;-81
2022/07/21 08:00:15;;;;;;;8.60;7.40;;;;;;;;;;5059197;28;20040;-82
2022/07/21 08:03:02;;;;;;;7.78;6.90;;;;;;;;;;5061697;28;20045;-83
2022/07/21 08:05:29;;;;;;;7.95;7.18;;;;;;;;;;5060121;28;20074;-83
2022/07/21 08:07:56;;;;;;;13.93;8.63;;;;;;;;;;5060533;28;20387;-83
2022/07/21 08:10:24;;;;;;;7.82;7.20;;;;;;;;;;5059496;28;20048;-82
2022/07/21 08:13:10;;;;;;;8.23;7.43;;;;;;;;;;5061749;28;20070;-84
2022/07/21 08:15:37;;;;;;;8.13;7.32;;;;;;;;;;5058058;28;20052;-81
2022/07/21 08:18:06;;;;;;;8.20;6.72;;;;;;;;;;5057333;28;20075;-81
2022/07/21 08:20:33;;;;;;;8.55;7.15;;;;;;;;;;5075534;28;20052;-81
2022/07/21 08:23:00;;;;;;;8.10;7.30;;;;;;;;;;5057216;28;20056;-81
2022/07/21 08:25:28;;;;;;;7.95;6.90;;;;;;;;;;5074883;28;20559;-81
2022/07/21 08:27:55;;;;;;;7.05;6.20;;;;;;;;;;5056927;28;20490;-81
2022/07/21 08:30:22;;;;;;;7.10;6.40;;;;;;;;;;5074450;28;20547;-82
2022/07/21 08:32:56;;;;;;;7.45;5.80;;;;;;;;;;5057105;28;20041;-82
2022/07/21 08:35:23;;;;;;;6.85;6.28;;;;;;;;;;5057330;28;20045;-83
2022/07/21 08:37:55;;;;;;;6.63;6.13;;;;;;;;;;5057942;28;20044;-81
2022/07/21 08:40:26;;;;;;;8.02;5.93;;;;;;;;;;5057868;28;20055;-82
2022/07/21 08:42:54;;;;;;;6.60;5.95;;;;;;;;;;5075931;28;20048;-84
2022/07/21 08:45:24;;;;;;;10.80;6.20;;;;;;;;;;5057153;28;20056;-83
2022/07/21 08:47:52;;;;;;;6.18;5.65;;;;;;;;;;5057024;28;20052;-83
2022/07/21 08:50:19;;;;;;;6.60;6.00;;;;;;;;;;5075158;28;20068;-82
2022/07/21 08:52:46;;;;;;;6.20;5.60;;;;;;;;;;5056818;28;20091;-81
2022/07/21 08:55:14;;;;;;;6.45;5.57;;;;;;;;;;5056828;28;20048;-82
2022/07/21 08:57:41;;;;;;;7.05;5.97;;;;;;;;;;5074849;28;20481;-83
2022/07/21 09:00:13;;;;;;;9.00;7.10;;;;;;;;;;5057958;28;20055;-84
2022/07/21 09:02:40;;;;;;;6.90;6.20;;;;;;;;;;5057582;28;20094;-83
2022/07/21 09:05:09;;;;;;;7.75;6.80;;;;;;;;;;5075482;28;20053;-83
2022/07/21 09:07:57;;;;;;;7.30;6.57;;;;;;;;;;5056886;28;20048;-83
2022/07/21 09:10:26;;;;;;;6.85;6.25;;;;;;;;;;5056595;28;20047;-83
2022/07/21 09:12:55;;;;;;;7.93;6.80;;;;;;;;;;5056112;28;20121;-84
2022/07/21 09:15:23;;;;;;;7.38;6.57;;;;;;;;;;5057062;28;20052;-84
2022/07/21 09:18:07;;;;;;;10.13;6.63;;;;;;;;;;5057106;28;20045;-85
2022/07/21 09:20:39;;;;;;;7.05;6.38;;;;;;;;;;5057436;28;20127;-84
2022/07/21 09:23:14;;;;;;;6.72;6.22;;;;;;;;;;5057361;28;20045;-84
2022/07/21 09:25:43;;;;;;;7.43;6.32;;;;;;;;;;5053246;28;20053;-86
2022/07/21 09:28:16;;;;;;;7.55;6.10;;;;;;;;;;5054305;28;20049;-83
2022/07/21 09:31:03;;;;;;;6.88;6.28;;;;;;;;;;5053688;28;20072;-84
2022/07/21 09:33:33;;;;;;;10.35;6.22;;;;;;;;;;5052790;28;20049;-85
2022/07/21 09:36:08;;;;;;;7.05;6.15;;;;;;;;;;5053368;28;20056;-84
2022/07/21 09:38:39;;;;;;;7.10;6.43;;;;;;;;;;5053894;28;20099;-84
2022/07/21 09:41:14;;;;;;;7.93;6.60;;;;;;;;;;5052784;28;20076;-83
2022/07/21 09:43:46;;;;;;;7.43;6.72;;;;;;;;;;5053339;28;20559;-81
2022/07/21 09:46:18;;;;;;;7.05;6.25;;;;;;;;;;5051707;28;20098;-82
2022/07/21 09:48:47;;;;;;;6.65;6.03;;;;;;;;;;5053533;28;20171;-83
2022/07/21 09:51:37;;;;;;;9.05;6.15;;;;;;;;;;5053117;28;20477;-84
2022/07/21 09:54:06;;;;;;;8.60;5.85;;;;;;;;;;5052892;28;20081;-83
2022/07/21 09:56:37;;;;;;;6.28;5.70;;;;;;;;;;5052360;28;20102;-84
2022/07/21 09:59:06;;;;;;;7.35;6.00;;;;;;;;;;5053445;28;20056;-84
2022/07/21 10:01:33;;;;;;;6.88;6.28;;;;;;;;;;5053004;28;20048;-82
2022/07/21 10:04:00;;;;;;;6.20;5.70;;;;;;;;;;5055116;28;20072;-86
2022/07/21 10:06:32;;;;;;;8.80;5.57;;;;;;;;;;5056893;28;20041;-84
2022/07/21 10:09:00;;;;;;;6.10;5.25;;;;;;;;;;5056727;28;20102;-84
2022/07/21 10:11:28;;;;;;;5.43;4.95;;;;;;;;;;5056191;28;20045;-83
2022/07/21 10:13:56;;;;;;;4.95;4.47;;;;;;;;;;5056188;28;20128;-83
2022/07/21 10:16:24;;;;;;;5.78;4.38;;;;;;;;;;5055941;28;20075;-84
2022/07/21 10:19:13;;;;;;;5.10;4.55;;;;;;;;;;5057361;28;20111;-85
2022/07/21 10:21:50;;;;;;;4.55;4.18;;;;;;;;;;5056419;28;20052;-84
2022/07/21 10:24:18;;;;;;;6.95;4.70;;;;;;;;;;5056538;28;20045;-84
2022/07/21 10:27:04;;;;;;;4.15;3.85;;;;;;;;;;5056000;28;20056;-84
2022/07/21 10:29:52;;;;;;;4.35;3.88;;;;;;;;;;5055735;28;20498;-86
2022/07/21 10:32:27;;;;;;;4.68;3.80;;;;;;;;;;5056708;28;20131;-85
2022/07/21 10:34:55;;;;;;;4.15;3.75;;;;;;;;;;5055787;28;20103;-84
2022/07/21 10:37:55;;;;;;;3.90;3.65;;;;;;;;;;5055842;28;20075;-86
2022/07/21 10:40:24;;;;;;;4.15;3.75;;;;;;;;;;5050954;28;20410;-85
2022/07/21 10:43:01;;;;;;;5.03;3.58;;;;;;;;;;5055055;28;20052;-85
2022/07/21 10:45:32;;;;;;;6.90;3.90;;;;;;;;;;5056623;28;20049;-85
2022/07/21 10:48:00;;;;;;;5.07;3.30;;;;;;;;;;5056249;28;20460;-86
2022/07/21 10:50:38;;;;;;;4.30;3.92;;;;;;;;;;5056164;28;20568;-85
2022/07/21 10:53:05;;;;;;;3.70;3.47;;;;;;;;;;5055651;28;20087;-85
2022/07/21 10:55:37;;;;;;;8.65;4.28;;;;;;;;;;5060292;28;20045;-85
2022/07/21 10:58:23;;;;;;;6.18;3.85;;;;;;;;;;5060120;28;20049;-81
2022/07/21 11:01:07;;;;;;;4.43;4.03;;;;;;;;;;5054162;28;20133;-83
2022/07/21 11:03:39;;;;;;;4.75;4.10;;;;;;;;;;5054736;28;20060;-84
2022/07/21 11:06:09;;;;;;;3.97;3.67;;;;;;;;;;5054336;28;20111;-84
2022/07/21 11:08:37;;;;;;;5.00;4.03;;;;;;;;;;5054304;28;20514;-84
2022/07/21 11:11:18;;;;;;;3.95;3.65;;;;;;;;;;5054503;28;20073;-84
2022/07/21 11:14:04;;;;;;;6.38;3.25;;;;;;;;;;5054240;28;20045;-82
2022/07/21 11:16:41;;;;;;;6.05;3.85;;;;;;;;;;5053628;28;20460;-83
2022/07/21 11:19:26;;;;;;;6.78;4.07;;;;;;;;;;5054228;28;20045;-82
2022/07/21 11:21:54;;;;;;;3.13;2.90;;;;;;;;;;5058127;28;20045;-82
2022/07/21 11:24:22;;;;;;;2.75;2.55;;;;;;;;;;5056560;28;20063;-84
2022/07/21 11:27:00;;;;;;;2.47;2.20;;;;;;;;;;5056709;28;20413;-82
2022/07/21 11:29:28;;;;;;;2.85;2.13;;;;;;;;;;5057182;28;20079;-83
2022/07/21 11:31:56;;;;;;;2.40;2.20;;;;;;;;;;5056100;28;20049;-85
2022/07/21 11:34:24;;;;;;;7.43;2.35;;;;;;;;;;5057139;28;20513;-81
2022/07/21 11:37:01;;;;;;;6.32;1.88;;;;;;;;;;5055832;28;20084;-83
2022/07/21 11:39:49;;;;;;;4.30;1.98;;;;;;;;;;5058418;28;20053;-82
2022/07/21 11:42:16;;;;;;;2.97;1.90;;;;;;;;;;5055854;28;20132;-83
2022/07/21 11:44:44;;;;;;;3.03;1.85;;;;;;;;;;5054983;28;20571;-84
2022/07/21 11:47:12;;;;;;;2.33;2.13;;;;;;;;;;5054121;28;20514;-85
2022/07/21 11:49:40;;;;;;;3.88;1.80;;;;;;;;;;5055557;28;20053;-83
2022/07/21 11:52:09;;;;;;;3.88;2.28;;;;;;;;;;5056068;28;20456;-82
2022/07/21 11:54:47;;;;;;;2.13;2.03;;;;;;;;;;5056107;28;20083;-80
2022/07/21 11:57:15;;;;;;;3.25;1.80;;;;;;;;;;5055528;28;20045;-82
2022/07/21 11:59:42;;;;;;;2.25;1.98;;;;;;;;;;5054509;28;20056;-83
2022/07/21 12:02:18;;;;;;;3.50;1.67;;;;;;;;;;5054939;28;20498;-84
2022/07/21 12:04:46;;;;;;;2.28;2.10;;;;;;;;;;5054516;28;20128;-84
2022/07/21 12:07:17;;;;;;;2.33;2.10;;;;;;;;;;5054483;28;20142;-83
2022/07/21 12:09:45;;;;;;;3.38;2.28;;;;;;;;;;5056395;28;20053;-82
2022/07/21 12:12:29;;;;;;;3.08;2.22;;;;;;;;;;5056660;28;20135;-81
2022/07/21 12:14:57;;;;;;;5.38;1.90;;;;;;;;;;5056439;28;20052;-81
2022/07/21 12:17:38;;;;;;;2.22;2.00;;;;;;;;;;5054813;28;20083;-83
2022/07/21 12:20:06;;;;;;;2.10;1.90;;;;;;;;;;5055783;28;20049;-83
2022/07/21 12:22:38;;;;;;;2.00;1.90;;;;;;;;;;5055705;28;20127;-83
2022/07/21 12:25:07;;;;;;;1.80;1.70;;;;;;;;;;5053839;28;20494;-84
2022/07/21 12:27:35;;;;;;;2.08;1.88;;;;;;;;;;5033476;28;20049;-83
2022/07/21 12:30:04;;;;;;;2.22;2.03;;;;;;;;;;5034551;28;20099;-84
2022/07/21 12:32:45;;;;;;;4.00;2.10;;;;;;;;;;5035619;28;20505;-84
2022/07/21 12:35:19;;;;;;;1.92;1.80;;;;;;;;;;5035216;28;20049;-84
2022/07/21 12:37:56;;;;;;;2.13;1.50;;;;;;;;;;5035505;28;20099;-81
2022/07/21 12:40:26;;;;;;;1.67;1.58;;;;;;;;;;5035079;28;20052;-84
2022/07/21 12:43:08;;;;;;;2.30;1.20;;;;;;;;;;5035395;28;20053;-85
2022/07/21 12:45:45;;;;;;;2.22;1.90;;;;;;;;;;5035883;28;20054;-83
2022/07/21 12:48:14;;;;;;;2.33;2.13;;;;;;;;;;5035218;28;20049;-84
2022/07/21 12:50:42;;;;;;;2.45;2.15;;;;;;;;;;5036796;28;20053;-84
2022/07/21 12:53:10;;;;;;;4.20;1.73;;;;;;;;;;5035182;28;20402;-83
2022/07/21 12:55:37;;;;;;;1.75;1.65;;;;;;;;;;5034880;28;20043;-85
2022/07/21 12:58:05;;;;;;;3.10;1.45;;;;;;;;;;5035592;28;20074;-82
2022/07/21 13:00:33;;;;;;;1.65;1.50;;;;;;;;;;5035714;28;20056;-84
2022/07/21 13:03:01;;;;;;;2.00;1.80;;;;;;;;;;5037062;28;20049;-80
2022/07/21 13:05:28;;;;;;;1.98;1.83;;;;;;;;;;5036222;28;20079;-83
2022/07/21 13:07:55;;;;;;;3.70;1.80;;;;;;;;;;5037519;28;20053;-84
2022/07/21 13:10:22;;;;;;;2.00;1.90;;;;;;;;;;5036037;28;20473;-84
2022/07/21 13:12:49;;;;;;;2.00;1.90;;;;;;;;;;5036415;28;20219;-83
2022/07/21 13:15:17;;;;;;;1.83;1.73;;;;;;;;;;5036014;28;20050;-83
2022/07/21 13:17:44;;;;;;;2.58;1.75;;;;;;;;;;5035662;28;20041;-83
2022/07/21 13:20:12;;;;;;;1.85;1.67;;;;;;;;;;5037825;28;20100;-83
2022/07/21 13:22:39;;;;;;;2.25;1.77;;;;;;;;;;5037740;28;20080;-84
2022/07/21 13:25:06;;;;;;;2.78;2.05;;;;;;;;;;5035531;28;20494;-85
2022/07/21 13:27:34;;;;;;;2.00;1.90;;;;;;;;;;5032861;28;20061;-83
2022/07/21 13:30:02;;;;;;;2.00;1.90;;;;;;;;;;5034273;28;20052;-81
2022/07/21 13:32:30;;;;;;;2.15;1.98;;;;;;;;;;5036944;28;20517;-79
2022/07/21 13:34:57;;;;;;;2.22;2.08;;;;;;;;;;5035341;28;20045;-83
2022/07/21 13:37:44;;;;;;;2.75;2.05;;;;;;;;;;5034294;28;20049;-84
2022/07/21 13:40:11;;;;;;;2.30;2.03;;;;;;;;;;5040570;28;20407;-83
2022/07/21 13:42:58;;;;;;;2.67;2.17;;;;;;;;;;5036780;28;20045;-83
2022/07/21 13:45:45;;;;;;;3.10;2.03;;;;;;;;;;5040145;28;20402;-83
2022/07/21 13:48:13;;;;;;;2.30;2.05;;;;;;;;;;5037697;28;20418;-86
2022/07/21 13:50:40;;;;;;;2.17;2.00;;;;;;;;;;5036034;28;20080;-85
2022/07/21 13:53:08;;;;;;;2.05;1.83;;;;;;;;;;5037092;28;20099;-83
2022/07/21 13:55:36;;;;;;;2.05;1.92;;;;;;;;;;5035903;28;20096;-85
2022/07/21 13:58:06;;;;;;;3.65;1.83;;;;;;;;;;5036195;28;20060;-85
2022/07/21 14:00:33;;;;;;;3.25;2.00;;;;;;;;;;5037333;28;20545;-83
2022/07/21 14:03:09;;;;;;;3.65;2.03;;;;;;;;;;5035975;28;20085;-85
2022/07/21 14:05:36;;;;;;;2.53;1.95;;;;;;;;;;5035900;28;20503;-83
2022/07/21 14:08:03;;;;;;;20.38;3.38;;;;;;;;;;5037427;28;20049;-83
2022/07/21 14:10:31;;;;;;;4.95;2.25;;;;;;;;;;5039610;28;20123;-84
2022/07/21 14:12:58;;;;;;;3.83;1.90;;;;;;;;;;5037781;28;20077;-85
2022/07/21 14:15:25;;;;;;;3.03;1.90;;;;;;;;;;5037390;28;20483;-83
2022/07/21 14:17:52;;;;;;;2.13;2.03;;;;;;;;;;5035237;28;20072;-85
2022/07/21 14:20:24;;;;;;;2.08;1.98;;;;;;;;;;5035353;28;20046;-84
2022/07/21 14:22:53;;;;;;;3.75;2.10;;;;;;;;;;5036656;28;20057;-83
2022/07/21 14:25:22;;;;;;;1.90;1.67;;;;;;;;;;5040703;28;20057;-86
2022/07/21 14:27:52;;;;;;;2.03;1.83;;;;;;;;;;5059538;28;20164;-85
2022/07/21 14:30:21;;;;;;;2.40;2.10;;;;;;;;;;5062743;28;20052;-84
2022/07/21 14:32:48;;;;;;;5.88;2.00;;;;;;;;;;5081582;28;20075;-83
2022/07/21 14:35:18;;;;;;;1.90;1.80;;;;;;;;;;5059615;28;20536;-86
2022/07/21 14:37:46;;;;;;;1.27;1.20;;;;;;;;;;5058089;28;20048;-85
2022/07/21 14:40:15;;;;;;;4.65;1.92;;;;;;;;;;5077822;28;20110;-85
2022/07/21 14:42:43;;;;;;;1.92;1.83;;;;;;;;;;5060581;28;20045;-84
2022/07/21 14:45:10;;;;;;;2.60;1.67;;;;;;;;;;5059409;28;20111;-86
2022/07/21 14:47:48;;;;;;;1.40;1.38;;;;;;;;;;5060592;28;20048;-86
2022/07/21 14:50:16;;;;;;;1.80;1.70;;;;;;;;;;5058120;28;20048;-84
2022/07/21 14:52:48;;;;;;;2.10;1.77;;;;;;;;;;5060817;28;20040;-85
2022/07/21 14:55:15;;;;;;;5.90;1.98;;;;;;;;;;5061865;28;20056;-86
2022/07/21 14:57:43;;;;;;;4.20;1.83;;;;;;;;;;5076581;28;20093;-84